Time;durP1;ratioP1;P1;durP2;ratioP2;P2;SDS_P1;SDS_P2;PMS_P1;PMS_P2;Temp;Humidity;BMP_temperature;BMP_pressure;BME280_temperature;BME280_humidity;BME280_pressure;Samples;Min_cycle;Max_cycle;Signal;HPM_P1;HPM_P2
2023/12/27 00:02:06;;;;;;;6.35;1.00;;;;;;;5.65;96.93;101152.47;5323927;27;20034;-73
2023/12/27 00:04:38;;;;;;;8.07;1.20;;;;;;;5.63;97.35;101145.56;5321134;27;20026;-73
2023/12/27 00:07:08;;;;;;;5.45;0.80;;;;;;;5.51;98.11;101150.81;5322108;27;20061;-73
2023/12/27 00:09:39;;;;;;;10.73;1.60;;;;;;;5.49;98.87;101149.97;5299952;27;20026;-74
2023/12/27 00:12:09;;;;;;;7.93;1.35;;;;;;;5.43;99.25;101144.81;5323125;27;20035;-73
2023/12/27 00:14:39;;;;;;;7.82;0.95;;;;;;;5.34;99.29;101147.44;5321380;27;20030;-73
2023/12/27 00:17:10;;;;;;;6.53;1.00;;;;;;;5.28;99.48;101154.38;5303327;27;20543;-74
2023/12/27 00:19:40;;;;;;;9.00;1.15;;;;;;;5.28;100.00;101156.97;5322552;27;20026;-74
2023/12/27 00:22:10;;;;;;;12.38;1.70;;;;;;;5.36;99.90;101163.00;5305079;27;20501;-76
2023/12/27 00:24:41;;;;;;;9.35;1.17;;;;;;;5.30;99.87;101171.66;5303541;27;20034;-75
2023/12/27 00:27:12;;;;;;;11.07;1.20;;;;;;;5.28;100.00;101176.00;5323929;27;20491;-76
2023/12/27 00:29:42;;;;;;;13.00;1.80;;;;;;;5.22;100.00;101176.03;5300945;27;20523;-73
2023/12/27 00:32:13;;;;;;;9.02;1.10;;;;;;;5.19;100.00;101181.19;5323846;27;20041;-73
2023/12/27 00:34:43;;;;;;;7.70;1.02;;;;;;;5.21;100.00;101178.63;5322910;27;20030;-74
2023/12/27 00:37:14;;;;;;;9.57;0.80;;;;;;;5.15;100.00;101184.69;5304564;27;20015;-74
2023/12/27 00:39:46;;;;;;;10.35;1.55;;;;;;;5.26;99.91;101179.44;5323473;27;20275;-74
2023/12/27 00:42:16;;;;;;;7.60;0.80;;;;;;;5.17;100.00;101182.94;5323488;27;20378;-73
2023/12/27 00:44:48;;;;;;;7.65;1.02;;;;;;;5.28;99.71;101188.94;5323393;27;20303;-73
2023/12/27 00:47:18;;;;;;;8.50;1.17;;;;;;;5.29;99.40;101197.59;5323297;27;20359;-73
2023/12/27 00:49:49;;;;;;;4.22;0.88;;;;;;;5.16;100.00;101196.75;5322948;27;20292;-74
2023/12/27 00:52:22;;;;;;;8.48;1.25;;;;;;;5.22;100.00;101201.94;5323544;27;20023;-73
2023/12/27 00:54:53;;;;;;;13.50;2.05;;;;;;;5.17;100.00;101206.25;5323739;27;20048;-73
2023/12/27 00:57:23;;;;;;;14.02;1.65;;;;;;;5.15;100.00;101210.59;5323846;27;20026;-73
2023/12/27 00:59:53;;;;;;;13.25;1.45;;;;;;;5.12;100.00;101215.78;5322866;27;20025;-73
2023/12/27 01:02:24;;;;;;;11.85;1.35;;;;;;;5.14;100.00;101214.03;5323388;27;20165;-73
2023/12/27 01:04:55;;;;;;;13.88;1.38;;;;;;;5.12;100.00;101214.94;5319001;27;20101;-73
2023/12/27 01:07:25;;;;;;;8.60;1.13;;;;;;;5.06;100.00;101222.72;5310134;27;20022;-73
2023/12/27 01:09:56;;;;;;;6.80;1.00;;;;;;;5.06;100.00;101221.00;5318228;27;20087;-74
2023/12/27 01:12:26;;;;;;;10.25;1.13;;;;;;;5.04;100.00;101222.72;5304548;27;20104;-73
2023/12/27 01:14:56;;;;;;;9.65;1.00;;;;;;;5.00;100.00;101221.00;5304192;27;20023;-74
2023/12/27 01:17:27;;;;;;;9.85;1.25;;;;;;;4.97;100.00;101221.00;5322795;27;20034;-73
2023/12/27 01:19:57;;;;;;;9.40;1.73;;;;;;;4.97;100.00;101228.78;5322810;27;20014;-74
2023/12/27 01:22:27;;;;;;;16.80;2.00;;;;;;;4.93;100.00;101241.72;5322746;27;20326;-73
2023/12/27 01:24:58;;;;;;;9.18;1.35;;;;;;;4.87;100.00;101252.09;5323175;27;20096;-73
2023/12/27 01:27:28;;;;;;;5.88;1.00;;;;;;;4.88;100.00;101246.94;5323069;27;20022;-74
2023/12/27 01:29:58;;;;;;;8.48;1.20;;;;;;;4.90;100.00;101252.09;5323184;27;20046;-74
2023/12/27 01:32:29;;;;;;;9.70;1.10;;;;;;;4.85;100.00;101262.50;5321965;27;20055;-73
2023/12/27 01:34:59;;;;;;;11.18;1.20;;;;;;;4.89;100.00;101266.78;5279866;27;20054;-73
2023/12/27 01:37:29;;;;;;;12.02;1.05;;;;;;;4.84;100.00;101270.25;5326704;27;20545;-73
2023/12/27 01:40:00;;;;;;;8.23;1.17;;;;;;;4.87;100.00;101271.13;5324520;27;20019;-73
2023/12/27 01:42:30;;;;;;;10.20;1.17;;;;;;;4.86;100.00;101269.41;5308912;27;20030;-72
2023/12/27 01:45:01;;;;;;;11.77;1.13;;;;;;;4.86;100.00;101274.56;5327012;27;20026;-73
2023/12/27 01:47:33;;;;;;;7.10;1.15;;;;;;;4.83;100.00;101284.91;5326241;27;20022;-73
2023/12/27 01:50:09;;;;;;;11.07;2.05;;;;;;;4.83;100.00;101278.88;5324049;27;20156;-73
2023/12/27 01:52:41;;;;;;;14.52;1.98;;;;;;;4.78;100.00;101280.63;5326501;27;20027;-73
2023/12/27 01:55:12;;;;;;;11.63;1.15;;;;;;;4.75;100.00;101288.38;5324300;27;20571;-74
2023/12/27 01:57:43;;;;;;;6.45;1.05;;;;;;;4.72;100.00;101284.06;5307711;27;20023;-74
2023/12/27 02:00:15;;;;;;;11.15;1.27;;;;;;;4.72;100.00;101275.44;5323780;27;20562;-73
2023/12/27 02:02:46;;;;;;;10.13;1.25;;;;;;;4.73;100.00;101287.50;5324484;27;20471;-74
2023/12/27 02:05:16;;;;;;;14.35;1.60;;;;;;;4.68;100.00;101281.47;5308102;27;20481;-73
2023/12/27 02:07:47;;;;;;;5.65;1.00;;;;;;;4.57;100.00;101278.03;5324747;27;20022;-73
2023/12/27 02:10:17;;;;;;;10.10;1.17;;;;;;;4.63;100.00;101276.31;5303992;27;20374;-73
2023/12/27 02:12:48;;;;;;;8.95;1.55;;;;;;;4.58;100.00;101275.44;5326798;27;20034;-73
2023/12/27 02:15:18;;;;;;;12.23;1.60;;;;;;;4.57;100.00;101281.50;5325949;27;20058;-74
2023/12/27 02:17:49;;;;;;;6.10;1.20;;;;;;;4.55;100.00;101278.03;5308311;27;20057;-73
2023/12/27 02:20:20;;;;;;;8.60;1.40;;;;;;;4.63;100.00;101271.13;5325932;27;20027;-73
2023/12/27 02:22:52;;;;;;;7.07;1.17;;;;;;;4.59;100.00;101265.94;5326077;27;20503;-74
2023/12/27 02:25:23;;;;;;;9.75;1.38;;;;;;;4.59;100.00;101264.22;5326518;27;20499;-73
2023/12/27 02:27:53;;;;;;;11.27;1.13;;;;;;;4.62;100.00;101251.28;5325287;27;20488;-74
2023/12/27 02:30:24;;;;;;;8.20;0.88;;;;;;;4.60;100.00;101253.00;5307092;27;20396;-73
2023/12/27 02:32:54;;;;;;;7.13;1.00;;;;;;;4.67;100.00;101249.53;5322707;27;20125;-74
2023/12/27 02:35:24;;;;;;;7.45;1.10;;;;;;;4.62;100.00;101248.69;5307126;27;20110;-74
2023/12/27 02:37:55;;;;;;;10.90;0.93;;;;;;;4.60;100.00;101245.25;5325977;27;20114;-74
2023/12/27 02:40:25;;;;;;;9.88;1.42;;;;;;;4.57;100.00;101245.25;5325952;27;20064;-74
2023/12/27 02:42:55;;;;;;;8.73;1.30;;;;;;;4.62;100.00;101245.25;5325424;27;20515;-73
2023/12/27 02:45:26;;;;;;;7.07;1.05;;;;;;;4.51;100.00;101242.69;5325454;27;20499;-73
2023/12/27 02:47:56;;;;;;;8.68;1.15;;;;;;;4.52;100.00;101249.56;5325283;27;20014;-73
2023/12/27 02:50:26;;;;;;;13.32;1.17;;;;;;;4.50;100.00;101246.09;5325515;27;20023;-74
2023/12/27 02:52:57;;;;;;;6.13;0.80;;;;;;;4.47;100.00;101247.84;5322473;27;20030;-73
2023/12/27 02:55:27;;;;;;;9.77;1.27;;;;;;;4.44;100.00;101250.44;5324379;27;20018;-73
2023/12/27 02:57:58;;;;;;;11.10;1.40;;;;;;;4.43;100.00;101259.91;5316444;27;20030;-73
2023/12/27 03:00:30;;;;;;;7.13;1.02;;;;;;;4.44;100.00;101255.63;5325424;27;20010;-73
2023/12/27 03:03:02;;;;;;;11.55;1.45;;;;;;;4.36;100.00;101254.75;5325442;27;20050;-73
2023/12/27 03:05:32;;;;;;;4.53;1.15;;;;;;;4.36;100.00;101245.28;5305595;27;20038;-73
2023/12/27 03:08:03;;;;;;;9.40;1.10;;;;;;;4.35;100.00;101237.50;5322906;27;20027;-74
2023/12/27 03:10:33;;;;;;;6.32;0.80;;;;;;;4.28;100.00;101228.88;5317190;27;20454;-73
2023/12/27 03:13:05;;;;;;;5.18;1.00;;;;;;;4.32;100.00;101232.31;5324509;27;20037;-73
2023/12/27 03:15:35;;;;;;;7.28;1.50;;;;;;;4.34;100.00;101233.19;5324791;27;20415;-73
2023/12/27 03:18:05;;;;;;;11.40;1.70;;;;;;;4.32;100.00;101237.50;5324061;27;20029;-74
2023/12/27 03:20:36;;;;;;;6.47;1.20;;;;;;;4.29;100.00;101243.53;5324431;27;20479;-74
2023/12/27 03:23:06;;;;;;;9.70;1.73;;;;;;;4.28;100.00;101240.97;5324811;27;20483;-74
2023/12/27 03:25:36;;;;;;;5.97;1.00;;;;;;;4.27;100.00;101249.56;5323808;27;21081;-73
2023/12/27 03:28:07;;;;;;;8.98;1.25;;;;;;;4.23;100.00;101248.72;5305545;27;20026;-73
2023/12/27 03:30:37;;;;;;;13.32;1.17;;;;;;;4.19;100.00;101252.16;5324773;27;20047;-73
2023/12/27 03:33:08;;;;;;;14.65;1.42;;;;;;;4.18;100.00;101249.56;5305709;27;20022;-74
2023/12/27 03:35:38;;;;;;;14.32;1.35;;;;;;;4.09;100.00;101244.41;5324308;27;20029;-73
2023/12/27 03:38:09;;;;;;;10.82;1.10;;;;;;;4.04;100.00;101246.09;5323910;27;20047;-73
2023/12/27 03:40:39;;;;;;;14.55;1.60;;;;;;;4.05;100.00;101243.53;5305131;27;20018;-73
2023/12/27 03:43:09;;;;;;;4.60;0.90;;;;;;;4.10;100.00;101251.28;5324275;27;20029;-73
2023/12/27 03:45:40;;;;;;;7.30;0.90;;;;;;;4.02;100.00;101253.88;5323957;27;20018;-74
2023/12/27 03:48:10;;;;;;;7.78;1.17;;;;;;;3.90;100.00;101251.25;5305798;27;20045;-73
2023/12/27 03:50:40;;;;;;;6.78;0.90;;;;;;;4.02;100.00;101259.03;5323878;27;20031;-73
2023/12/27 03:53:11;;;;;;;5.85;0.85;;;;;;;4.03;100.00;101259.88;5318273;27;20023;-73
2023/12/27 03:55:44;;;;;;;3.92;0.85;;;;;;;3.77;98.68;101264.16;5322943;27;20258;-73
2023/12/27 03:58:14;;;;;;;17.15;3.33;;;;;;;3.59;100.00;101267.53;5322789;27;20022;-74
2023/12/27 04:00:44;;;;;;;37.15;10.88;;;;;;;3.53;100.00;101268.38;5323598;27;20418;-73
2023/12/27 04:03:15;;;;;;;21.90;7.15;;;;;;;3.41;100.00;101268.31;5323931;27;20209;-73
2023/12/27 04:05:45;;;;;;;14.43;3.20;;;;;;;3.42;100.00;101262.28;5323718;27;20019;-73
2023/12/27 04:08:15;;;;;;;10.60;1.67;;;;;;;3.33;100.00;101262.25;5323575;27;20030;-74
2023/12/27 04:10:46;;;;;;;6.65;1.38;;;;;;;3.29;100.00;101260.50;5321375;27;20046;-73
2023/12/27 04:13:16;;;;;;;12.35;1.27;;;;;;;3.27;100.00;101262.22;5324381;27;20035;-73
2023/12/27 04:15:46;;;;;;;6.60;0.82;;;;;;;3.21;100.00;101262.19;5323289;27;20065;-73
2023/12/27 04:18:17;;;;;;;6.80;1.13;;;;;;;3.11;100.00;101260.41;5323456;27;20167;-73
2023/12/27 04:20:47;;;;;;;26.65;8.10;;;;;;;3.10;100.00;101258.69;5323232;27;20673;-73
2023/12/27 04:23:17;;;;;;;11.85;2.45;;;;;;;3.05;100.00;101265.56;5324242;27;20031;-73
2023/12/27 04:25:47;;;;;;;7.65;1.60;;;;;;;2.99;100.00;101271.53;5322794;27;20079;-73
2023/12/27 04:28:18;;;;;;;8.57;0.93;;;;;;;2.95;100.00;101266.34;5323405;27;20456;-73
2023/12/27 04:30:48;;;;;;;11.82;0.90;;;;;;;2.88;100.00;101262.00;5322627;27;20038;-74
2023/12/27 04:33:18;;;;;;;7.78;0.95;;;;;;;3.07;100.00;101263.84;5323590;27;20090;-73
2023/12/27 04:35:49;;;;;;;10.45;1.10;;;;;;;3.01;100.00;101263.81;5323125;27;20031;-73
2023/12/27 04:38:19;;;;;;;9.20;1.00;;;;;;;2.82;100.00;101272.31;5323491;27;20493;-73
2023/12/27 04:40:49;;;;;;;8.55;0.88;;;;;;;2.73;100.00;101278.25;5322778;27;20414;-74
2023/12/27 04:43:20;;;;;;;3.75;1.05;;;;;;;2.64;100.00;101277.31;5323015;27;20550;-73
2023/12/27 04:45:50;;;;;;;10.60;1.30;;;;;;;2.66;100.00;101275.63;5322992;27;20053;-73
2023/12/27 04:48:20;;;;;;;7.53;0.80;;;;;;;2.72;100.00;101281.66;5320139;27;20613;-73
2023/12/27 04:50:51;;;;;;;8.35;0.88;;;;;;;2.72;100.00;101278.25;5320147;27;20039;-73
2023/12/27 04:53:21;;;;;;;7.18;1.52;;;;;;;2.70;100.00;101277.38;5303678;27;20018;-73
2023/12/27 04:55:51;;;;;;;9.60;1.17;;;;;;;2.68;100.00;101285.09;5304084;27;20113;-73
2023/12/27 04:58:22;;;;;;;6.10;0.95;;;;;;;2.79;100.00;101280.00;5324004;27;20079;-73
2023/12/27 05:00:52;;;;;;;12.85;1.20;;;;;;;2.67;100.00;101283.38;5323063;27;20053;-73
2023/12/27 05:03:22;;;;;;;10.93;1.08;;;;;;;2.65;100.00;101285.06;5322780;27;20027;-73
2023/12/27 05:05:53;;;;;;;9.70;1.38;;;;;;;2.64;100.00;101291.09;5323339;27;20200;-74
2023/12/27 05:08:23;;;;;;;8.65;1.50;;;;;;;2.58;100.00;101292.75;5301293;27;20022;-73
2023/12/27 05:10:53;;;;;;;4.63;0.93;;;;;;;2.67;100.00;101287.69;5322237;27;20029;-74
2023/12/27 05:13:24;;;;;;;8.07;1.15;;;;;;;2.69;100.00;101301.44;5327264;27;20027;-73
2023/12/27 05:15:54;;;;;;;10.45;1.42;;;;;;;2.72;100.00;101297.16;5326360;27;20724;-74
2023/12/27 05:18:24;;;;;;;9.85;1.23;;;;;;;2.79;100.00;101304.09;5327149;27;20029;-73
2023/12/27 05:20:55;;;;;;;8.07;1.50;;;;;;;2.88;100.00;101303.31;5326792;27;20030;-74
2023/12/27 05:23:25;;;;;;;6.55;1.00;;;;;;;2.95;100.00;101302.47;5327151;27;20122;-73
2023/12/27 05:25:55;;;;;;;10.43;1.15;;;;;;;2.97;100.00;101308.50;5326676;27;20506;-73
2023/12/27 05:28:26;;;;;;;6.13;0.98;;;;;;;2.90;100.00;101314.50;5308712;27;20467;-73
2023/12/27 05:30:56;;;;;;;6.28;1.00;;;;;;;3.01;100.00;101311.13;5326787;27;20035;-73
2023/12/27 05:33:27;;;;;;;3.88;1.00;;;;;;;2.97;100.00;101322.28;5308244;27;20015;-73
2023/12/27 05:35:57;;;;;;;8.00;0.82;;;;;;;2.99;100.00;101317.16;5308091;27;20613;-73
2023/12/27 05:38:27;;;;;;;7.43;1.02;;;;;;;3.01;100.00;101305.13;5326682;27;20050;-74
2023/12/27 05:40:58;;;;;;;10.27;0.88;;;;;;;2.94;100.00;101313.66;5326566;27;20038;-73
2023/12/27 05:43:28;;;;;;;9.85;0.93;;;;;;;3.01;100.00;101305.13;5326988;27;20023;-73
2023/12/27 05:45:58;;;;;;;6.78;0.82;;;;;;;3.02;100.00;101304.25;5323821;27;20482;-73
2023/12/27 05:48:29;;;;;;;12.60;1.30;;;;;;;3.07;100.00;101312.91;5307591;27;20022;-73
2023/12/27 05:50:59;;;;;;;8.18;1.65;;;;;;;3.01;100.00;101315.44;5326441;27;20169;-73
2023/12/27 05:53:29;;;;;;;4.55;0.98;;;;;;;3.04;100.00;101300.81;5326418;27;20502;-73
2023/12/27 05:55:59;;;;;;;13.52;1.67;;;;;;;3.18;100.00;101293.19;5326405;27;20030;-74
2023/12/27 05:58:30;;;;;;;11.38;1.30;;;;;;;3.09;100.00;101293.09;5319519;27;20551;-73
2023/12/27 06:01:00;;;;;;;7.18;1.33;;;;;;;3.10;100.00;101289.66;5321398;27;20038;-74
2023/12/27 06:03:30;;;;;;;8.38;1.20;;;;;;;3.14;100.00;101301.75;5319237;27;20063;-74
2023/12/27 06:06:04;;;;;;;5.63;0.90;;;;;;;3.04;100.00;101305.97;5302951;27;20062;-73
2023/12/27 06:08:34;;;;;;;6.70;0.90;;;;;;;2.92;100.00;101302.47;5316769;27;20074;-73
2023/12/27 06:11:11;;;;;;;7.68;1.00;;;;;;;2.94;100.00;101298.19;5319614;27;20129;-74
2023/12/27 06:13:42;;;;;;;5.50;1.17;;;;;;;2.88;100.00;101300.72;5320650;27;20105;-73
2023/12/27 06:16:12;;;;;;;5.15;0.93;;;;;;;2.70;100.00;101293.69;5300026;27;20740;-73
2023/12/27 06:18:42;;;;;;;12.80;1.60;;;;;;;2.75;100.00;101292.03;5304165;27;20121;-73
2023/12/27 06:21:13;;;;;;;9.77;1.30;;;;;;;2.78;100.00;101286.91;5322606;27;20046;-73
2023/12/27 06:23:43;;;;;;;4.80;1.27;;;;;;;2.79;100.00;101298.06;5322070;27;20023;-73
2023/12/27 06:26:14;;;;;;;10.30;1.90;;;;;;;2.84;100.00;101292.09;5323392;27;20050;-73
2023/12/27 06:28:45;;;;;;;8.52;1.42;;;;;;;2.84;100.00;101291.25;5318151;27;20026;-73
2023/12/27 06:31:16;;;;;;;6.80;1.85;;;;;;;2.91;100.00;101300.75;5319169;27;20521;-74
2023/12/27 06:33:46;;;;;;;6.53;0.98;;;;;;;2.82;100.00;101298.13;5321618;27;20030;-74
2023/12/27 06:36:17;;;;;;;7.68;1.00;;;;;;;2.76;100.00;101287.72;5315588;27;20500;-74
2023/12/27 06:38:48;;;;;;;8.70;0.90;;;;;;;2.73;100.00;101298.03;5325541;27;20031;-73
2023/12/27 06:41:18;;;;;;;7.32;1.20;;;;;;;2.77;100.00;101299.78;5302417;27;20026;-73
2023/12/27 06:43:49;;;;;;;6.35;0.70;;;;;;;2.81;100.00;101307.56;5323707;27;20412;-73
2023/12/27 06:46:20;;;;;;;7.82;1.20;;;;;;;2.98;100.00;101294.75;5315661;27;20031;-73
2023/12/27 06:48:50;;;;;;;7.25;1.45;;;;;;;2.97;100.00;101303.34;5323056;27;20031;-74
2023/12/27 06:51:20;;;;;;;9.38;1.30;;;;;;;3.16;100.00;101287.16;5315272;27;20090;-74
2023/12/27 06:53:50;;;;;;;5.88;0.80;;;;;;;2.93;100.00;101284.41;5322425;27;20542;-74
2023/12/27 06:56:21;;;;;;;7.55;1.42;;;;;;;2.82;100.00;101292.94;5318338;27;20033;-73
2023/12/27 06:58:51;;;;;;;8.30;0.95;;;;;;;2.75;100.00;101298.91;5322475;27;20562;-73
2023/12/27 07:01:22;;;;;;;6.80;1.00;;;;;;;2.68;100.00;101297.13;5318495;27;20019;-74
2023/12/27 07:03:52;;;;;;;13.60;1.13;;;;;;;2.68;100.00;101289.41;5324902;27;20027;-73
2023/12/27 07:06:22;;;;;;;7.82;1.33;;;;;;;2.62;100.00;101284.19;5318968;27;20047;-73
2023/12/27 07:08:53;;;;;;;8.52;1.00;;;;;;;2.66;100.00;101289.38;5321337;27;20027;-73
2023/12/27 07:11:24;;;;;;;4.53;0.73;;;;;;;2.74;100.00;101297.19;5319201;27;20031;-73
2023/12/27 07:13:55;;;;;;;9.70;1.05;;;;;;;2.87;100.00;101292.09;5319413;27;20037;-73
2023/12/27 07:16:25;;;;;;;9.00;1.05;;;;;;;2.90;100.00;101286.09;5307561;27;20495;-73
2023/12/27 07:18:56;;;;;;;5.40;0.98;;;;;;;2.95;100.00;101293.03;5284594;27;20027;-73
2023/12/27 07:21:27;;;;;;;5.35;1.00;;;;;;;3.00;100.00;101293.06;5319003;27;20548;-73
2023/12/27 07:23:57;;;;;;;4.53;1.00;;;;;;;3.05;100.00;101291.38;5319450;27;20837;-73
2023/12/27 07:26:27;;;;;;;6.03;0.93;;;;;;;3.02;100.00;101293.94;5300926;27;20434;-74
2023/12/27 07:28:58;;;;;;;8.45;1.52;;;;;;;2.98;100.00;101289.59;5319576;27;20553;-74
2023/12/27 07:31:28;;;;;;;7.63;1.00;;;;;;;3.14;100.00;101292.28;5317336;27;20079;-73
2023/12/27 07:33:59;;;;;;;7.78;1.23;;;;;;;3.08;100.00;101301.72;5321376;27;20495;-73
2023/12/27 07:36:29;;;;;;;5.63;0.82;;;;;;;3.06;100.00;101303.41;5323620;27;20026;-73
2023/12/27 07:38:59;;;;;;;5.30;0.88;;;;;;;2.93;100.00;101297.31;5319944;27;20082;-73
2023/12/27 07:41:30;;;;;;;6.55;1.00;;;;;;;2.96;100.00;101314.53;5336381;22;20351;-77
2023/12/27 07:44:00;;;;;;;8.68;1.00;;;;;;;2.97;100.00;101311.97;5256758;28;20072;-77
2023/12/27 07:46:30;;;;;;;6.53;0.80;;;;;;;3.12;100.00;101308.63;5259462;28;20027;-77
2023/12/27 07:49:02;;;;;;;6.55;1.08;;;;;;;3.08;100.00;101305.16;5261927;28;20036;-77
2023/12/27 07:51:32;;;;;;;9.35;1.08;;;;;;;2.97;100.00;101311.09;5263547;28;20482;-77
2023/12/27 07:54:03;;;;;;;7.05;0.93;;;;;;;2.92;100.00;101315.38;5277448;28;20073;-77
2023/12/27 07:56:34;;;;;;;3.78;0.73;;;;;;;2.97;100.00;101319.72;5281851;28;20020;-77
2023/12/27 07:59:05;;;;;;;5.03;0.90;;;;;;;2.93;100.00;101310.22;5279265;28;20024;-77
2023/12/27 08:01:35;;;;;;;7.10;0.98;;;;;;;2.78;100.00;101315.28;5274871;28;20028;-77
2023/12/27 08:04:05;;;;;;;7.75;1.05;;;;;;;2.91;100.00;101313.66;5279233;28;20115;-75
2023/12/27 08:06:36;;;;;;;3.78;0.70;;;;;;;2.96;100.00;101315.41;5275052;28;20051;-77
2023/12/27 08:09:06;;;;;;;9.57;0.80;;;;;;;2.82;100.00;101319.59;5276910;28;20460;-76
2023/12/27 08:11:36;;;;;;;6.88;1.20;;;;;;;2.82;100.00;101324.78;5276877;28;20024;-77
2023/12/27 08:14:07;;;;;;;5.88;1.02;;;;;;;2.89;100.00;101316.19;5281150;28;20050;-77
2023/12/27 08:16:37;;;;;;;9.77;1.10;;;;;;;2.86;100.00;101310.19;5278816;28;20033;-78
2023/12/27 08:19:07;;;;;;;9.02;1.35;;;;;;;2.86;100.00;101315.34;5277886;28;20020;-77
2023/12/27 08:21:38;;;;;;;5.47;0.90;;;;;;;2.97;100.00;101299.06;5279506;28;20048;-77
2023/12/27 08:24:09;;;;;;;7.38;0.75;;;;;;;3.13;100.00;101300.88;5280927;28;20028;-77
2023/12/27 08:26:39;;;;;;;5.68;0.80;;;;;;;3.38;100.00;101313.06;5280368;28;20051;-77
2023/12/27 08:29:09;;;;;;;5.50;0.63;;;;;;;3.58;100.00;101308.88;5279204;28;20515;-77
2023/12/27 08:31:40;;;;;;;5.38;0.77;;;;;;;3.58;100.00;101307.16;5278004;28;20089;-78
2023/12/27 08:34:10;;;;;;;10.23;0.95;;;;;;;3.50;100.00;101310.56;5276402;28;20066;-77
2023/12/27 08:36:45;;;;;;;7.47;0.98;;;;;;;3.44;100.00;101310.53;5278659;28;20096;-77
2023/12/27 08:39:15;;;;;;;6.88;1.20;;;;;;;3.51;100.00;101311.44;5278519;28;20061;-77
2023/12/27 08:41:45;;;;;;;10.93;1.73;;;;;;;3.87;100.00;101300.38;5280656;28;20040;-78
2023/12/27 08:44:16;;;;;;;8.88;1.23;;;;;;;3.90;100.00;101304.66;5281521;28;20035;-78
2023/12/27 08:46:46;;;;;;;7.78;1.67;;;;;;;3.91;100.00;101296.91;5286017;28;20126;-77
2023/12/27 08:49:17;;;;;;;10.85;1.30;;;;;;;3.99;100.00;101284.84;5282765;28;20084;-77
2023/12/27 08:51:48;;;;;;;7.22;1.10;;;;;;;4.11;100.00;101274.56;5279972;28;20395;-78
2023/12/27 08:54:19;;;;;;;7.50;0.98;;;;;;;4.38;100.00;101284.94;5284335;28;20037;-77
2023/12/27 08:56:50;;;;;;;8.55;0.95;;;;;;;4.37;100.00;101285.81;5280186;28;20511;-78
2023/12/27 08:59:21;;;;;;;7.72;1.00;;;;;;;4.38;100.00;101278.88;5280218;28;20023;-78
2023/12/27 09:01:51;;;;;;;12.00;1.00;;;;;;;4.36;100.00;101276.31;5285099;28;20024;-76
2023/12/27 09:04:22;;;;;;;4.13;0.82;;;;;;;4.41;100.00;101259.06;5283541;28;20031;-76
2023/12/27 09:06:53;;;;;;;6.95;0.90;;;;;;;4.40;100.00;101259.03;5284029;28;20641;-76
2023/12/27 09:09:23;;;;;;;7.00;1.10;;;;;;;4.54;100.00;101250.44;5278748;28;20027;-76
2023/12/27 09:11:53;;;;;;;9.63;1.33;;;;;;;4.67;100.00;101259.06;5283760;28;20039;-77
2023/12/27 09:14:24;;;;;;;6.38;1.13;;;;;;;4.79;100.00;101253.88;5281767;28;20031;-76
2023/12/27 09:16:55;;;;;;;5.30;1.27;;;;;;;4.74;100.00;101240.91;5282682;28;20175;-77
2023/12/27 09:19:25;;;;;;;8.38;1.30;;;;;;;4.72;100.00;101244.38;5280548;28;20584;-77
2023/12/27 09:21:56;;;;;;;8.98;1.10;;;;;;;4.56;100.00;101237.47;5281728;28;20041;-76
2023/12/27 09:24:26;;;;;;;9.80;1.17;;;;;;;4.79;100.00;101239.19;5281281;28;20020;-76
2023/12/27 09:26:58;;;;;;;5.60;1.10;;;;;;;5.04;100.00;101243.47;5284070;28;20024;-77
2023/12/27 09:29:30;;;;;;;9.48;1.10;;;;;;;4.94;100.00;101246.06;5283574;28;20028;-77
2023/12/27 09:32:00;;;;;;;8.25;1.08;;;;;;;5.15;100.00;101243.41;5282369;28;20092;-76
2023/12/27 09:34:31;;;;;;;13.65;1.27;;;;;;;5.01;100.00;101238.25;5283029;27;20031;-76
2023/12/27 09:37:03;;;;;;;19.67;1.20;;;;;;;5.28;100.00;101235.59;5283861;28;20039;-77
2023/12/27 09:39:33;;;;;;;5.32;1.20;;;;;;;5.47;100.00;101229.47;5280677;28;20553;-77
2023/12/27 09:42:04;;;;;;;13.50;1.75;;;;;;;5.39;100.00;101229.50;5277965;27;20038;-77
2023/12/27 09:44:37;;;;;;;5.18;0.90;;;;;;;5.54;100.00;101220.81;5278903;28;20485;-77
2023/12/27 09:47:10;;;;;;;6.38;1.17;;;;;;;5.55;100.00;101220.78;5277436;27;20042;-76
2023/12/27 09:49:40;;;;;;;9.65;1.00;;;;;;;5.61;100.00;101227.66;5276072;28;20116;-75
2023/12/27 09:52:11;;;;;;;7.63;1.15;;;;;;;5.53;100.00;101219.06;5272805;27;20541;-76
2023/12/27 09:54:41;;;;;;;6.85;1.40;;;;;;;5.47;100.00;101213.91;5277081;28;20035;-76
2023/12/27 09:57:12;;;;;;;10.68;1.08;;;;;;;5.42;100.00;101210.50;5279591;27;20027;-77
2023/12/27 09:59:46;;;;;;;12.63;1.10;;;;;;;5.48;100.00;101208.72;5280168;28;20377;-75
2023/12/27 10:02:20;;;;;;;4.45;1.25;;;;;;;5.46;100.00;101201.81;5274836;27;20461;-76
2023/12/27 10:04:54;;;;;;;6.63;1.00;;;;;;;5.35;100.00;101195.81;5276594;28;20219;-76
2023/12/27 10:07:25;;;;;;;10.05;1.10;;;;;;;5.48;100.00;101194.91;5277053;28;20277;-75
2023/12/27 10:09:56;;;;;;;6.45;0.98;;;;;;;5.44;100.00;101203.56;5276302;28;20077;-77
2023/12/27 10:12:26;;;;;;;7.30;1.00;;;;;;;5.41;100.00;101190.63;5275793;28;20069;-77
2023/12/27 10:14:57;;;;;;;11.48;1.40;;;;;;;5.41;100.00;101190.63;5276337;28;20058;-77
2023/12/27 10:17:27;;;;;;;8.48;1.83;;;;;;;5.46;100.00;101184.56;5278776;28;20348;-76
2023/12/27 10:19:58;;;;;;;11.48;1.02;;;;;;;5.58;100.00;101178.44;5279270;28;20395;-76
2023/12/27 10:22:29;;;;;;;6.40;1.08;;;;;;;5.62;100.00;101172.34;5277647;27;20031;-77
2023/12/27 10:24:59;;;;;;;10.13;1.00;;;;;;;5.71;100.00;101173.16;5278204;28;20027;-77
2023/12/27 10:27:30;;;;;;;7.20;1.17;;;;;;;5.73;100.00;101162.78;5279679;28;20030;-76
2023/12/27 10:30:03;;;;;;;8.18;1.20;;;;;;;5.83;100.00;101167.06;5279579;28;20087;-76
2023/12/27 10:32:33;;;;;;;7.18;0.90;;;;;;;5.93;100.00;101166.97;5279487;28;20023;-76
2023/12/27 10:35:04;;;;;;;6.65;1.48;;;;;;;5.92;100.00;101167.00;5280086;27;20508;-77
2023/12/27 10:37:37;;;;;;;6.20;0.88;;;;;;;6.06;100.00;101159.97;5276804;28;20031;-76
2023/12/27 10:40:08;;;;;;;9.35;1.17;;;;;;;6.11;100.00;101150.41;5278460;28;20123;-77
2023/12/27 10:42:41;;;;;;;12.98;1.30;;;;;;;6.10;100.00;101146.94;5280083;28;20036;-76
2023/12/27 10:45:11;;;;;;;5.53;1.15;;;;;;;6.11;100.00;101147.81;5280732;27;20130;-77
2023/12/27 10:47:44;;;;;;;6.43;1.00;;;;;;;6.11;99.59;101140.03;5278973;28;20107;-75
2023/12/27 10:50:19;;;;;;;7.40;1.00;;;;;;;6.17;98.47;101127.00;5280165;27;20122;-76
2023/12/27 10:52:59;;;;;;;9.13;1.20;;;;;;;6.12;97.70;101123.59;5279580;28;20455;-76
2023/12/27 10:55:31;;;;;;;8.30;1.08;;;;;;;6.25;96.26;101120.03;5277561;27;20527;-76
2023/12/27 10:58:05;;;;;;;7.28;1.10;;;;;;;6.16;95.22;101112.31;5281966;28;20544;-76
2023/12/27 11:00:35;;;;;;;8.32;1.08;;;;;;;6.14;95.59;101103.69;5278755;27;20110;-76
2023/12/27 11:03:06;;;;;;;9.57;1.15;;;;;;;6.12;94.06;101115.81;5280479;28;20168;-76
2023/12/27 11:05:37;;;;;;;7.65;1.05;;;;;;;6.21;94.75;101110.50;5278383;27;20035;-76
2023/12/27 11:08:10;;;;;;;6.75;0.90;;;;;;;6.39;94.92;101112.97;5276274;28;20032;-77
2023/12/27 11:10:44;;;;;;;7.28;1.13;;;;;;;6.37;93.91;101110.38;5277757;27;20133;-75
2023/12/27 11:13:17;;;;;;;5.57;0.88;;;;;;;6.51;93.97;101092.03;5280467;28;20027;-77
2023/12/27 11:15:51;;;;;;;10.02;1.02;;;;;;;6.52;93.92;101093.75;5280146;27;20084;-77
2023/12/27 11:18:23;;;;;;;9.27;1.10;;;;;;;6.57;94.65;101089.41;5281376;28;20107;-76
2023/12/27 11:20:56;;;;;;;8.07;1.58;;;;;;;6.46;93.55;101079.09;5280679;27;20432;-76
2023/12/27 11:23:27;;;;;;;7.03;1.55;;;;;;;6.61;94.26;101078.09;5276634;28;20461;-77
2023/12/27 11:26:00;;;;;;;5.13;0.90;;;;;;;6.69;95.82;101081.44;5280547;27;20042;-77
2023/12/27 11:28:32;;;;;;;6.72;1.00;;;;;;;6.67;95.86;101083.19;5280486;28;20026;-76
2023/12/27 11:31:04;;;;;;;5.10;0.90;;;;;;;6.81;95.65;101081.31;5277437;28;20042;-77
2023/12/27 11:33:35;;;;;;;5.53;1.27;;;;;;;6.80;94.68;101072.63;5277833;28;20034;-76
2023/12/27 11:36:06;;;;;;;9.95;1.40;;;;;;;6.78;94.54;101066.59;5274125;27;20032;-76
2023/12/27 11:38:36;;;;;;;8.98;1.25;;;;;;;6.69;95.30;101069.34;5274713;28;20019;-76
2023/12/27 11:41:07;;;;;;;6.60;1.33;;;;;;;6.85;95.99;101054.41;5277061;27;20030;-76